CEB135 RPVE-RPLL
Flight info
| Callsign | CEB135 |
|---|---|
| Flight time | 0h 44m |
| Altitude | 26000 |
| Route | MINOR8A MINOR B473 LAIYA LAIYA7R |
| Aircraft | A21N/M-SDE3FGHIRWY/LB1 |
Departure
| Time | 2026-05-05 15:09 |
|---|---|
| Airport | Godofredo P. Ramos Airport (RPVE) |
Arrival
| Time | 2026-05-05 15:53 |
|---|---|
| Airport | Ninoy Aquino International Airport (RPLL) |
| Time | Latitude | Longitude | Altitude | Speed | Heading |
|---|---|---|---|---|---|
| 2026-05-05 14:50 | 11.92659 | 121.96375 | 14 ft | 0 kts | 150° |
| 2026-05-05 15:00 | 11.92670 | 121.96369 | 14 ft | 2 kts | 150° |
| 2026-05-05 15:00 | 11.92679 | 121.96364 | 14 ft | 2 kts | 154° |
| 2026-05-05 15:00 | 11.92697 | 121.96366 | 14 ft | 2 kts | 222° |
| 2026-05-05 15:00 | 11.92702 | 121.96372 | 14 ft | 0 kts | 247° |
| 2026-05-05 15:01 | 11.92704 | 121.96378 | 14 ft | 0 kts | 243° |
| 2026-05-05 15:04 | 11.92700 | 121.96369 | 14 ft | 6 kts | 243° |
| 2026-05-05 15:04 | 11.92665 | 121.96299 | 14 ft | 12 kts | 242° |
| 2026-05-05 15:05 | 11.92664 | 121.96194 | 14 ft | 7 kts | 332° |
| 2026-05-05 15:05 | 11.92715 | 121.96167 | 14 ft | 8 kts | 332° |
| 2026-05-05 15:05 | 11.92773 | 121.96135 | 14 ft | 13 kts | 329° |
| 2026-05-05 15:06 | 11.92762 | 121.96023 | 14 ft | 23 kts | 243° |
| 2026-05-05 15:06 | 11.92660 | 121.95816 | 14 ft | 41 kts | 243° |
| 2026-05-05 15:06 | 11.92508 | 121.95514 | 14 ft | 48 kts | 243° |
| 2026-05-05 15:06 | 11.92362 | 121.95221 | 14 ft | 44 kts | 243° |
| 2026-05-05 15:07 | 11.92266 | 121.95065 | 14 ft | 13 kts | 216° |
| 2026-05-05 15:07 | 11.92238 | 121.95013 | 14 ft | 5 kts | 303° |
| 2026-05-05 15:07 | 11.92264 | 121.95026 | 14 ft | 4 kts | 65° |
| 2026-05-05 15:07 | 11.92266 | 121.95030 | 14 ft | 0 kts | 63° |
| 2026-05-05 15:08 | 11.92316 | 121.95132 | 14 ft | 53 kts | 63° |
| 2026-05-05 15:08 | 11.92613 | 121.95721 | 14 ft | 129 kts | 63° |
| 2026-05-05 15:08 | 11.93091 | 121.96683 | 234 ft | 163 kts | 63° |
| 2026-05-05 15:09 | 11.93588 | 121.97684 | 1016 ft | 158 kts | 62° |
| 2026-05-05 15:09 | 11.94068 | 121.98637 | 1815 ft | 151 kts | 62° |
| 2026-05-05 15:09 | 11.94559 | 121.99593 | 2350 ft | 159 kts | 61° |
| 2026-05-05 15:09 | 11.95099 | 122.00627 | 2657 ft | 170 kts | 61° |
| 2026-05-05 15:10 | 11.95676 | 122.01720 | 2975 ft | 180 kts | 60° |
| 2026-05-05 15:10 | 11.96344 | 122.02812 | 3340 ft | 186 kts | 46° |
| 2026-05-05 15:10 | 11.97416 | 122.03577 | 3703 ft | 193 kts | 27° |
| 2026-05-05 15:10 | 11.98676 | 122.04228 | 3945 ft | 211 kts | 25° |
| 2026-05-05 15:11 | 12.00051 | 122.04906 | 4236 ft | 227 kts | 24° |
| 2026-05-05 15:11 | 12.01535 | 122.05636 | 4439 ft | 250 kts | 25° |
| 2026-05-05 15:11 | 12.03155 | 122.06440 | 4821 ft | 268 kts | 25° |
| 2026-05-05 15:11 | 12.04845 | 122.07286 | 5455 ft | 275 kts | 25° |
| 2026-05-05 15:12 | 12.06561 | 122.08149 | 6205 ft | 277 kts | 25° |
| 2026-05-05 15:12 | 12.08302 | 122.09026 | 6926 ft | 280 kts | 25° |
| 2026-05-05 15:12 | 12.10040 | 122.09901 | 7617 ft | 283 kts | 25° |
| 2026-05-05 15:12 | 12.11819 | 122.10798 | 8301 ft | 287 kts | 24° |
| 2026-05-05 15:13 | 12.13596 | 122.11694 | 8959 ft | 290 kts | 24° |
| 2026-05-05 15:13 | 12.15414 | 122.12611 | 9608 ft | 294 kts | 24° |
| 2026-05-05 15:13 | 12.17249 | 122.13535 | 10233 ft | 298 kts | 24° |
| 2026-05-05 15:13 | 12.19151 | 122.14494 | 10597 ft | 312 kts | 24° |
| 2026-05-05 15:14 | 12.21151 | 122.15501 | 10877 ft | 327 kts | 24° |
| 2026-05-05 15:14 | 12.23248 | 122.16560 | 11160 ft | 342 kts | 24° |
| 2026-05-05 15:14 | 12.25392 | 122.17644 | 11622 ft | 350 kts | 25° |
| 2026-05-05 15:14 | 12.27592 | 122.18756 | 12224 ft | 353 kts | 25° |
| 2026-05-05 15:15 | 12.29806 | 122.19875 | 12818 ft | 356 kts | 25° |
| 2026-05-05 15:15 | 12.32021 | 122.20994 | 13393 ft | 359 kts | 25° |
| 2026-05-05 15:15 | 12.34292 | 122.22062 | 13949 ft | 361 kts | 17° |
| 2026-05-05 15:15 | 12.36767 | 122.22419 | 14464 ft | 360 kts | 354° |
| 2026-05-05 15:16 | 12.39185 | 122.21796 | 15001 ft | 358 kts | 332° |
| 2026-05-05 15:16 | 12.41315 | 122.20458 | 15550 ft | 359 kts | 324° |
| 2026-05-05 15:16 | 12.43352 | 122.19016 | 16041 ft | 362 kts | 323° |
| 2026-05-05 15:16 | 12.45421 | 122.17542 | 16526 ft | 365 kts | 323° |
| 2026-05-05 15:17 | 12.47523 | 122.16054 | 17037 ft | 368 kts | 324° |
| 2026-05-05 15:17 | 12.49646 | 122.14562 | 17538 ft | 370 kts | 324° |
| 2026-05-05 15:17 | 12.51769 | 122.13076 | 18004 ft | 373 kts | 324° |
| 2026-05-05 15:17 | 12.53937 | 122.11564 | 18461 ft | 375 kts | 324° |
| 2026-05-05 15:18 | 12.56101 | 122.10056 | 18906 ft | 378 kts | 324° |
| 2026-05-05 15:18 | 12.58263 | 122.08551 | 19336 ft | 381 kts | 324° |
| 2026-05-05 15:18 | 12.60459 | 122.07023 | 19761 ft | 383 kts | 324° |
| 2026-05-05 15:18 | 12.62662 | 122.05490 | 20176 ft | 386 kts | 324° |
| 2026-05-05 15:19 | 12.64902 | 122.03932 | 20586 ft | 388 kts | 324° |
| 2026-05-05 15:19 | 12.67130 | 122.02382 | 20982 ft | 390 kts | 324° |
| 2026-05-05 15:19 | 12.69398 | 122.00804 | 21375 ft | 393 kts | 324° |
| 2026-05-05 15:19 | 12.71661 | 121.99229 | 21755 ft | 395 kts | 324° |
| 2026-05-05 15:20 | 12.73922 | 121.97655 | 22125 ft | 397 kts | 324° |
| 2026-05-05 15:20 | 12.76244 | 121.96038 | 22497 ft | 400 kts | 324° |
| 2026-05-05 15:20 | 12.78548 | 121.94434 | 22849 ft | 402 kts | 324° |
| 2026-05-05 15:20 | 12.80889 | 121.92803 | 23191 ft | 404 kts | 324° |
| 2026-05-05 15:21 | 12.83233 | 121.91169 | 23510 ft | 407 kts | 324° |
| 2026-05-05 15:21 | 12.85575 | 121.89536 | 23842 ft | 409 kts | 324° |
| 2026-05-05 15:21 | 12.87916 | 121.87904 | 24173 ft | 411 kts | 324° |
| 2026-05-05 15:21 | 12.90301 | 121.86240 | 24500 ft | 413 kts | 324° |
| 2026-05-05 15:22 | 12.92675 | 121.84586 | 24813 ft | 415 kts | 324° |
| 2026-05-05 15:22 | 12.95060 | 121.82922 | 25121 ft | 417 kts | 324° |
| 2026-05-05 15:22 | 12.97450 | 121.81255 | 25420 ft | 419 kts | 324° |
| 2026-05-05 15:22 | 12.99884 | 121.79557 | 25705 ft | 421 kts | 324° |
| 2026-05-05 15:23 | 13.02309 | 121.77865 | 25901 ft | 424 kts | 324° |
| 2026-05-05 15:23 | 13.04765 | 121.76150 | 25908 ft | 424 kts | 324° |
| 2026-05-05 15:23 | 13.07198 | 121.74451 | 25911 ft | 425 kts | 324° |
| 2026-05-05 15:23 | 13.09633 | 121.72751 | 25912 ft | 426 kts | 324° |
| 2026-05-05 15:24 | 13.12103 | 121.71024 | 25912 ft | 427 kts | 324° |
| 2026-05-05 15:24 | 13.14593 | 121.69283 | 25913 ft | 428 kts | 324° |
| 2026-05-05 15:24 | 13.17049 | 121.67567 | 25914 ft | 428 kts | 324° |
| 2026-05-05 15:24 | 13.19492 | 121.65858 | 25914 ft | 428 kts | 324° |
| 2026-05-05 15:25 | 13.21960 | 121.64132 | 25914 ft | 428 kts | 324° |
| 2026-05-05 15:25 | 13.24398 | 121.62426 | 25914 ft | 428 kts | 324° |
| 2026-05-05 15:25 | 13.26858 | 121.60704 | 25914 ft | 428 kts | 324° |
| 2026-05-05 15:25 | 13.29321 | 121.58981 | 25914 ft | 428 kts | 324° |
| 2026-05-05 15:26 | 13.31757 | 121.57275 | 25914 ft | 428 kts | 324° |
| 2026-05-05 15:26 | 13.34207 | 121.55559 | 25914 ft | 428 kts | 324° |
| 2026-05-05 15:26 | 13.36660 | 121.53841 | 25914 ft | 428 kts | 324° |
| 2026-05-05 15:26 | 13.39146 | 121.52098 | 25914 ft | 428 kts | 324° |
| 2026-05-05 15:27 | 13.41597 | 121.50381 | 25914 ft | 428 kts | 324° |
| 2026-05-05 15:27 | 13.44036 | 121.48671 | 25914 ft | 428 kts | 324° |
| 2026-05-05 15:27 | 13.46507 | 121.46938 | 25914 ft | 428 kts | 324° |
| 2026-05-05 15:27 | 13.48972 | 121.45209 | 25914 ft | 428 kts | 324° |
| 2026-05-05 15:28 | 13.51412 | 121.43497 | 25914 ft | 428 kts | 324° |
| 2026-05-05 15:28 | 13.53856 | 121.41782 | 25913 ft | 427 kts | 324° |
| 2026-05-05 15:28 | 13.56285 | 121.40078 | 25909 ft | 411 kts | 324° |
| 2026-05-05 15:28 | 13.58560 | 121.38457 | 25907 ft | 395 kts | 323° |
| 2026-05-05 15:29 | 13.60760 | 121.36829 | 25907 ft | 380 kts | 322° |
| 2026-05-05 15:29 | 13.62873 | 121.35249 | 25912 ft | 379 kts | 322° |
| 2026-05-05 15:29 | 13.65023 | 121.33638 | 25913 ft | 378 kts | 322° |
| 2026-05-05 15:29 | 13.67136 | 121.32058 | 25913 ft | 378 kts | 322° |
| 2026-05-05 15:30 | 13.69262 | 121.30470 | 25914 ft | 378 kts | 322° |
| 2026-05-05 15:30 | 13.71391 | 121.28881 | 25914 ft | 378 kts | 322° |
| 2026-05-05 15:30 | 13.73517 | 121.27295 | 25914 ft | 378 kts | 322° |
| 2026-05-05 15:30 | 13.75652 | 121.25703 | 25914 ft | 378 kts | 322° |
| 2026-05-05 15:31 | 13.77781 | 121.24114 | 25914 ft | 378 kts | 322° |
| 2026-05-05 15:31 | 13.79915 | 121.22521 | 25710 ft | 378 kts | 322° |
| 2026-05-05 15:31 | 13.82029 | 121.20945 | 25460 ft | 375 kts | 322° |
| 2026-05-05 15:31 | 13.84139 | 121.19370 | 25210 ft | 374 kts | 322° |
| 2026-05-05 15:32 | 13.86228 | 121.17809 | 24961 ft | 372 kts | 322° |
| 2026-05-05 15:32 | 13.88320 | 121.16247 | 24710 ft | 371 kts | 322° |
| 2026-05-05 15:32 | 13.90401 | 121.14691 | 24460 ft | 370 kts | 322° |
| 2026-05-05 15:32 | 13.92467 | 121.13147 | 24211 ft | 369 kts | 322° |
| 2026-05-05 15:33 | 13.94535 | 121.11601 | 23961 ft | 367 kts | 322° |
| 2026-05-05 15:33 | 13.96600 | 121.10051 | 23718 ft | 365 kts | 324° |
| 2026-05-05 15:33 | 13.98615 | 121.08525 | 23446 ft | 358 kts | 326° |
| 2026-05-05 15:33 | 14.00606 | 121.07044 | 23198 ft | 352 kts | 326° |
| 2026-05-05 15:34 | 14.02612 | 121.05554 | 22945 ft | 350 kts | 326° |
| 2026-05-05 15:34 | 14.04557 | 121.04105 | 22698 ft | 349 kts | 325° |
| 2026-05-05 15:34 | 14.06507 | 121.02650 | 22450 ft | 347 kts | 325° |
| 2026-05-05 15:34 | 14.08463 | 121.01188 | 22208 ft | 345 kts | 325° |
| 2026-05-05 15:35 | 14.10389 | 120.99746 | 21976 ft | 343 kts | 325° |
| 2026-05-05 15:35 | 14.12333 | 120.98291 | 21752 ft | 342 kts | 325° |
| 2026-05-05 15:35 | 14.14233 | 120.96868 | 21622 ft | 333 kts | 325° |
| 2026-05-05 15:35 | 14.16058 | 120.95501 | 21559 ft | 319 kts | 326° |
| 2026-05-05 15:36 | 14.17885 | 120.94245 | 21469 ft | 314 kts | 329° |
| 2026-05-05 15:36 | 14.19755 | 120.93113 | 21088 ft | 313 kts | 330° |
| 2026-05-05 15:36 | 14.21655 | 120.91993 | 20713 ft | 310 kts | 331° |
| 2026-05-05 15:36 | 14.23500 | 120.90909 | 20389 ft | 305 kts | 330° |
| 2026-05-05 15:37 | 14.25154 | 120.89601 | 20292 ft | 303 kts | 308° |
| 2026-05-05 15:37 | 14.26034 | 120.87618 | 20103 ft | 308 kts | 279° |
| 2026-05-05 15:37 | 14.25871 | 120.85410 | 19570 ft | 315 kts | 250° |
| 2026-05-05 15:37 | 14.24855 | 120.83433 | 19105 ft | 316 kts | 240° |
| 2026-05-05 15:38 | 14.23706 | 120.81479 | 18633 ft | 317 kts | 241° |
| 2026-05-05 15:38 | 14.22592 | 120.79546 | 18177 ft | 317 kts | 241° |
| 2026-05-05 15:38 | 14.21487 | 120.77592 | 17721 ft | 317 kts | 242° |
| 2026-05-05 15:38 | 14.20387 | 120.75627 | 17261 ft | 317 kts | 242° |
| 2026-05-05 15:39 | 14.19281 | 120.73669 | 16784 ft | 318 kts | 242° |
| 2026-05-05 15:39 | 14.18173 | 120.71713 | 16311 ft | 319 kts | 242° |
| 2026-05-05 15:39 | 14.17044 | 120.69722 | 15830 ft | 319 kts | 242° |
| 2026-05-05 15:39 | 14.15930 | 120.67757 | 15357 ft | 319 kts | 242° |
| 2026-05-05 15:40 | 14.14820 | 120.65797 | 14882 ft | 319 kts | 242° |
| 2026-05-05 15:40 | 14.13709 | 120.63834 | 14406 ft | 319 kts | 242° |
| 2026-05-05 15:40 | 14.12597 | 120.61869 | 13925 ft | 319 kts | 242° |
| 2026-05-05 15:40 | 14.11493 | 120.59863 | 13409 ft | 320 kts | 247° |
| 2026-05-05 15:41 | 14.11028 | 120.57666 | 12843 ft | 317 kts | 275° |
| 2026-05-05 15:41 | 14.11658 | 120.55543 | 12305 ft | 315 kts | 303° |
| 2026-05-05 15:41 | 14.13225 | 120.54031 | 11855 ft | 308 kts | 332° |
| 2026-05-05 15:41 | 14.15211 | 120.53325 | 11431 ft | 296 kts | 342° |
| 2026-05-05 15:42 | 14.17140 | 120.52679 | 10980 ft | 292 kts | 338° |
| 2026-05-05 15:42 | 14.18973 | 120.51895 | 10523 ft | 284 kts | 339° |
| 2026-05-05 15:42 | 14.20899 | 120.51566 | 9790 ft | 286 kts | 5° |
| 2026-05-05 15:42 | 14.22737 | 120.52225 | 9093 ft | 286 kts | 33° |
| 2026-05-05 15:43 | 14.24143 | 120.53664 | 8523 ft | 282 kts | 53° |
| 2026-05-05 15:43 | 14.25165 | 120.55373 | 8110 ft | 282 kts | 59° |
| 2026-05-05 15:43 | 14.26104 | 120.57135 | 7735 ft | 279 kts | 59° |
| 2026-05-05 15:43 | 14.27019 | 120.58877 | 7382 ft | 277 kts | 59° |
| 2026-05-05 15:44 | 14.27937 | 120.60606 | 7031 ft | 275 kts | 59° |
| 2026-05-05 15:44 | 14.28851 | 120.62310 | 6706 ft | 271 kts | 59° |
| 2026-05-05 15:44 | 14.29773 | 120.64004 | 6377 ft | 267 kts | 59° |
| 2026-05-05 15:44 | 14.30679 | 120.65650 | 6087 ft | 262 kts | 59° |
| 2026-05-05 15:45 | 14.31552 | 120.67224 | 6056 ft | 247 kts | 59° |
| 2026-05-05 15:45 | 14.32388 | 120.68723 | 6026 ft | 232 kts | 58° |
| 2026-05-05 15:45 | 14.33191 | 120.70155 | 5865 ft | 234 kts | 62° |
| 2026-05-05 15:45 | 14.33989 | 120.71581 | 5604 ft | 228 kts | 62° |
| 2026-05-05 15:46 | 14.34782 | 120.72994 | 5242 ft | 224 kts | 62° |
| 2026-05-05 15:46 | 14.35541 | 120.74352 | 5004 ft | 213 kts | 62° |
| 2026-05-05 15:46 | 14.36241 | 120.75606 | 4973 ft | 192 kts | 62° |
| 2026-05-05 15:46 | 14.36872 | 120.76735 | 5001 ft | 176 kts | 62° |
| 2026-05-05 15:47 | 14.37486 | 120.77840 | 4858 ft | 176 kts | 62° |
| 2026-05-05 15:47 | 14.37881 | 120.78553 | 4708 ft | 172 kts | 63° |
| 2026-05-05 15:47 | 14.38641 | 120.79925 | 4395 ft | 161 kts | 62° |
| 2026-05-05 15:47 | 14.39194 | 120.80920 | 4205 ft | 159 kts | 63° |
| 2026-05-05 15:48 | 14.39741 | 120.81905 | 3991 ft | 158 kts | 63° |
| 2026-05-05 15:48 | 14.40286 | 120.82888 | 3789 ft | 157 kts | 63° |
| 2026-05-05 15:48 | 14.40826 | 120.83858 | 3582 ft | 155 kts | 63° |
| 2026-05-05 15:48 | 14.41364 | 120.84829 | 3363 ft | 157 kts | 62° |
| 2026-05-05 15:49 | 14.41907 | 120.85807 | 3167 ft | 158 kts | 62° |
| 2026-05-05 15:49 | 14.42446 | 120.86776 | 2956 ft | 155 kts | 63° |
| 2026-05-05 15:49 | 14.42981 | 120.87740 | 2751 ft | 153 kts | 63° |
| 2026-05-05 15:49 | 14.43506 | 120.88683 | 2549 ft | 151 kts | 63° |
| 2026-05-05 15:50 | 14.44049 | 120.89600 | 2338 ft | 151 kts | 51° |
| 2026-05-05 15:50 | 14.44638 | 120.90469 | 2113 ft | 147 kts | 71° |
| 2026-05-05 15:50 | 14.45001 | 120.91457 | 2005 ft | 148 kts | 66° |
| 2026-05-05 15:50 | 14.45507 | 120.92384 | 1755 ft | 149 kts | 60° |
| 2026-05-05 15:51 | 14.46055 | 120.93294 | 1578 ft | 148 kts | 60° |
| 2026-05-05 15:51 | 14.46588 | 120.94212 | 1368 ft | 150 kts | 62° |
| 2026-05-05 15:51 | 14.47103 | 120.95139 | 1173 ft | 148 kts | 63° |
| 2026-05-05 15:51 | 14.47609 | 120.96061 | 980 ft | 146 kts | 62° |
| 2026-05-05 15:52 | 14.48101 | 120.96963 | 767 ft | 145 kts | 63° |
| 2026-05-05 15:52 | 14.48587 | 120.97881 | 576 ft | 144 kts | 62° |
| 2026-05-05 15:52 | 14.49099 | 120.98770 | 421 ft | 146 kts | 62° |
| 2026-05-05 15:52 | 14.49596 | 120.99671 | 229 ft | 145 kts | 62° |
| 2026-05-05 15:53 | 14.50095 | 121.00566 | 88 ft | 138 kts | 62° |
| 2026-05-05 15:53 | 14.50505 | 121.01315 | 84 ft | 96 kts | 60° |
| 2026-05-05 15:53 | 14.50757 | 121.01767 | 84 ft | 55 kts | 59° |
| 2026-05-05 15:53 | 14.50931 | 121.02076 | 84 ft | 46 kts | 59° |
| 2026-05-05 15:54 | 14.51106 | 121.02274 | 84 ft | 19 kts | 41° |
| 2026-05-05 15:54 | 14.51181 | 121.02296 | 84 ft | 9 kts | 315° |
| 2026-05-05 15:54 | 14.51175 | 121.02229 | 84 ft | 10 kts | 239° |
| 2026-05-05 15:54 | 14.51138 | 121.02164 | 84 ft | 10 kts | 240° |
| 2026-05-05 15:55 | 14.51100 | 121.02095 | 84 ft | 11 kts | 240° |
| 2026-05-05 15:55 | 14.51063 | 121.02023 | 84 ft | 10 kts | 258° |
| 2026-05-05 15:55 | 14.51103 | 121.01954 | 84 ft | 13 kts | 315° |
| 2026-05-05 15:55 | 14.51189 | 121.01867 | 84 ft | 20 kts | 316° |
| 2026-05-05 15:56 | 14.51294 | 121.01757 | 84 ft | 21 kts | 314° |
| 2026-05-05 15:56 | 14.51396 | 121.01653 | 84 ft | 20 kts | 314° |
| 2026-05-05 15:56 | 14.51492 | 121.01553 | 84 ft | 19 kts | 314° |
| 2026-05-05 15:56 | 14.51584 | 121.01457 | 84 ft | 18 kts | 316° |
| 2026-05-05 15:57 | 14.51674 | 121.01366 | 84 ft | 17 kts | 315° |
| 2026-05-05 15:57 | 14.51760 | 121.01277 | 84 ft | 17 kts | 315° |
| 2026-05-05 15:57 | 14.51819 | 121.01219 | 84 ft | 7 kts | 332° |
| 2026-05-05 15:57 | 14.51846 | 121.01220 | 84 ft | 2 kts | 38° |
| 2026-05-05 15:58 | 14.51861 | 121.01236 | 84 ft | 3 kts | 46° |
| 2026-05-05 15:58 | 14.51879 | 121.01255 | 84 ft | 3 kts | 44° |
| 2026-05-05 15:58 | 14.51893 | 121.01269 | 84 ft | 0 kts | 45° |
| 2026-05-05 15:58 | 14.51895 | 121.01271 | 84 ft | 0 kts | 45° |